Weather at Corunna Downs Airport

Public forecast

Using degrees Celsius for public forecast. Weather courtesy of forecast.io.

Closest aviation weather report (METAR) to Corunna Downs Airport

Closest report is Port Hedland International Airport, 94.8 nm (175.5 km) NW.

2024/05/18 22:00 (retrieved 13 minutes ago)

YPPD 182200Z AUTO 14009KT 9999 // NCD 21/02 Q1018 RF000/0000

Closest aviation forecast (TAF) to Corunna Downs Airport

Closest forecast is Port Hedland International Airport, 94.8 nm (175.5 km) NW.

2024/05/18 18:36 (retrieved 4 hours ago)

TAF YPPD 181702Z 1818/1918 12012KT CAVOK FM190000 10020G30KT CAVOK FM190400 10017KT CAVOK FM190900 12012KT CAVOK